Time;durP1;ratioP1;P1;durP2;ratioP2;P2;SDS_P1;SDS_P2;PMS_P1;PMS_P2;Temp;Humidity;BMP_temperature;BMP_pressure;BME280_temperature;BME280_humidity;BME280_pressure;Samples;Min_cycle;Max_cycle;Signal;HPM_P1;HPM_P2
2021/12/30 00:01:28;;;;;;;0.77;0.77;;;5.00;99.90;;;;;;5239923;28;20470;-74
2021/12/30 00:04:04;;;;;;;0.82;0.82;;;5.00;99.90;;;;;;5261419;28;20341;-75
2021/12/30 00:06:40;;;;;;;0.80;0.80;;;4.90;99.90;;;;;;5238403;28;20153;-75
2021/12/30 00:09:19;;;;;;;0.70;0.70;;;4.90;99.90;;;;;;5262158;28;20048;-75
2021/12/30 00:11:57;;;;;;;0.60;0.60;;;4.90;99.90;;;;;;5256519;28;20046;-74
2021/12/30 00:14:32;;;;;;;0.70;0.70;;;5.00;99.90;;;;;;5254262;28;20093;-75
2021/12/30 00:17:06;;;;;;;0.80;0.80;;;5.00;99.90;;;;;;5249772;28;20346;-74
2021/12/30 00:19:39;;;;;;;0.70;0.70;;;5.00;99.90;;;;;;5258946;28;20426;-74
2021/12/30 00:22:18;;;;;;;1.13;1.13;;;5.00;99.90;;;;;;5257075;28;20036;-74
2021/12/30 00:24:49;;;;;;;1.27;1.27;;;5.10;99.90;;;;;;5235403;28;20044;-74
2021/12/30 00:27:31;;;;;;;0.85;0.85;;;5.20;99.90;;;;;;5244895;28;20225;-74
2021/12/30 00:30:15;;;;;;;0.60;0.60;;;5.20;99.90;;;;;;5245843;28;20112;-74
2021/12/30 00:32:51;;;;;;;0.70;0.70;;;5.30;99.90;;;;;;5271357;28;20039;-76
2021/12/30 00:35:31;;;;;;;0.50;0.50;;;5.30;99.90;;;;;;5232595;28;20041;-74
2021/12/30 00:38:07;;;;;;;2.97;2.67;;;5.30;99.90;;;;;;5248872;28;20042;-75
2021/12/30 00:40:39;;;;;;;0.60;0.60;;;5.40;99.90;;;;;;5259111;28;20459;-74
2021/12/30 00:43:12;;;;;;;1.10;1.10;;;5.50;99.90;;;;;;5260348;28;20027;-73
2021/12/30 00:45:47;;;;;;;0.73;0.73;;;5.60;99.90;;;;;;5251790;28;20047;-74
2021/12/30 00:48:20;;;;;;;;;;;5.60;99.90;;;;;;5260549;28;20036;-74
2021/12/30 00:50:59;;;;;;;0.55;0.55;;;5.70;99.90;;;;;;5239075;28;19994;-75
2021/12/30 00:53:32;;;;;;;0.93;0.93;;;5.70;99.90;;;;;;5248914;28;20035;-75
2021/12/30 00:56:03;;;;;;;0.88;0.88;;;5.80;99.90;;;;;;5253541;28;20218;-76
2021/12/30 00:58:34;;;;;;;0.60;0.60;;;5.90;99.90;;;;;;5256373;28;20036;-76
2021/12/30 01:01:05;;;;;;;0.63;0.63;;;6.10;99.90;;;;;;5250028;28;20636;-74
2021/12/30 01:03:36;;;;;;;0.80;0.80;;;6.10;99.90;;;;;;5240797;28;20043;-74
2021/12/30 01:06:07;;;;;;;0.50;0.50;;;6.20;99.90;;;;;;5246078;28;20060;-74
2021/12/30 01:08:44;;;;;;;0.75;0.75;;;6.40;99.90;;;;;;5249309;28;20024;-75
2021/12/30 01:11:16;;;;;;;0.85;0.85;;;6.40;99.90;;;;;;5261565;28;20260;-73
2021/12/30 01:13:58;;;;;;;0.63;0.63;;;6.50;99.90;;;;;;5226060;28;20401;-73
2021/12/30 01:16:41;;;;;;;0.60;0.60;;;6.50;99.90;;;;;;5270072;28;20229;-74
2021/12/30 01:19:42;;;;;;;0.60;0.60;;;6.60;99.90;;;;;;5235527;28;20036;-74
2021/12/30 01:22:26;;;;;;;0.50;0.50;;;6.60;99.90;;;;;;5245087;28;20036;-76
2021/12/30 01:25:02;;;;;;;1.55;1.25;;;6.70;99.90;;;;;;5251965;28;20051;-74
2021/12/30 01:27:41;;;;;;;0.60;0.60;;;6.70;99.90;;;;;;5258323;28;20048;-73
2021/12/30 01:30:19;;;;;;;0.60;0.60;;;6.70;99.90;;;;;;5242597;28;20081;-74
2021/12/30 01:32:50;;;;;;;0.80;0.80;;;6.70;99.90;;;;;;5260032;28;20031;-74
2021/12/30 01:35:25;;;;;;;0.60;0.60;;;6.80;99.90;;;;;;5240823;28;20153;-74
2021/12/30 01:38:01;;;;;;;0.60;0.60;;;6.80;99.90;;;;;;5255284;28;20039;-74
2021/12/30 01:40:33;;;;;;;0.70;0.70;;;6.80;99.90;;;;;;5235798;28;20036;-76
2021/12/30 01:43:04;;;;;;;0.57;0.57;;;7.00;99.90;;;;;;5260080;28;20379;-76
2021/12/30 01:45:34;;;;;;;0.60;0.60;;;7.10;99.90;;;;;;5253441;28;20028;-76
2021/12/30 01:48:08;;;;;;;0.77;0.77;;;7.10;99.90;;;;;;5251509;28;20035;-76
2021/12/30 01:50:40;;;;;;;0.70;0.70;;;7.10;99.90;;;;;;5251393;28;20148;-76
2021/12/30 01:53:17;;;;;;;0.52;0.52;;;7.20;99.90;;;;;;5254951;28;20307;-73
2021/12/30 01:55:50;;;;;;;0.90;0.90;;;7.30;99.90;;;;;;5254682;28;20066;-74
2021/12/30 01:58:21;;;;;;;0.90;0.90;;;7.30;99.90;;;;;;5256227;28;20074;-75
2021/12/30 02:00:52;;;;;;;0.80;0.80;;;7.30;99.90;;;;;;5247651;28;20331;-76
2021/12/30 02:03:31;;;;;;;0.60;0.60;;;7.40;99.90;;;;;;5245841;28;20491;-76
2021/12/30 02:06:02;;;;;;;0.70;0.70;;;7.40;99.90;;;;;;5237772;28;20161;-76
2021/12/30 02:08:34;;;;;;;0.75;0.75;;;7.40;99.90;;;;;;5242088;28;20036;-75
2021/12/30 02:11:05;;;;;;;0.73;0.73;;;7.40;99.90;;;;;;5218919;28;20284;-74
2021/12/30 02:13:36;;;;;;;0.57;0.57;;;7.30;99.90;;;;;;5240429;28;20069;-75
2021/12/30 02:16:16;;;;;;;0.60;0.60;;;7.30;99.90;;;;;;5253547;28;20265;-74
2021/12/30 02:18:55;;;;;;;1.00;1.00;;;7.40;99.90;;;;;;5259128;28;20040;-74
2021/12/30 02:21:31;;;;;;;0.98;0.98;;;7.40;99.90;;;;;;5237042;28;20322;-74
2021/12/30 02:24:07;;;;;;;0.63;0.63;;;7.40;99.90;;;;;;5253164;28;20037;-74
2021/12/30 02:26:43;;;;;;;0.80;0.80;;;7.40;99.90;;;;;;5236081;28;20268;-74
2021/12/30 02:29:19;;;;;;;0.70;0.70;;;7.40;99.90;;;;;;5256153;28;20024;-76
2021/12/30 02:31:50;;;;;;;0.60;0.60;;;7.40;99.90;;;;;;5261592;28;20032;-76
2021/12/30 02:34:22;;;;;;;2.15;2.05;;;7.30;99.90;;;;;;5257247;28;20031;-74
2021/12/30 02:37:01;;;;;;;0.70;0.70;;;7.20;99.90;;;;;;5250861;28;20056;-74
2021/12/30 02:39:37;;;;;;;0.55;0.55;;;6.70;99.90;;;;;;5264457;28;20099;-74
2021/12/30 02:42:08;;;;;;;0.80;0.80;;;6.60;99.90;;;;;;5255028;28;20333;-74
2021/12/30 02:44:41;;;;;;;0.40;0.40;;;6.50;99.90;;;;;;5258643;28;20028;-73
2021/12/30 02:47:18;;;;;;;0.50;0.50;;;6.40;99.90;;;;;;5252077;28;20047;-77
2021/12/30 02:49:56;;;;;;;0.70;0.70;;;6.40;99.90;;;;;;5245016;28;20031;-74
2021/12/30 02:52:27;;;;;;;0.60;0.60;;;6.30;99.90;;;;;;5246037;28;20412;-74
2021/12/30 02:55:01;;;;;;;0.82;0.82;;;6.30;99.90;;;;;;5221411;28;20035;-74
2021/12/30 02:57:31;;;;;;;0.60;0.60;;;6.30;99.90;;;;;;5246935;28;20056;-74
2021/12/30 03:00:10;;;;;;;0.60;0.60;;;6.20;99.90;;;;;;5255114;28;20231;-74
2021/12/30 03:02:43;;;;;;;0.77;0.77;;;6.20;99.90;;;;;;5263875;28;20031;-74
2021/12/30 03:05:20;;;;;;;0.70;0.70;;;6.10;99.90;;;;;;5244708;28;20072;-74
2021/12/30 03:07:54;;;;;;;0.60;0.60;;;6.10;99.90;;;;;;5259417;28;20210;-75
2021/12/30 03:10:28;;;;;;;0.52;0.52;;;6.10;99.90;;;;;;5264422;28;20036;-74
2021/12/30 03:13:07;;;;;;;0.80;0.80;;;5.90;99.90;;;;;;5258504;28;20043;-77
2021/12/30 03:15:41;;;;;;;0.50;0.50;;;6.00;99.90;;;;;;5258144;28;20020;-74
2021/12/30 03:18:19;;;;;;;0.73;0.73;;;6.00;99.90;;;;;;5258336;28;20137;-75
2021/12/30 03:20:50;;;;;;;0.60;0.60;;;6.00;99.90;;;;;;5254409;28;20229;-76
2021/12/30 03:23:23;;;;;;;0.85;0.85;;;6.10;99.90;;;;;;5262727;28;20035;-74
2021/12/30 03:25:59;;;;;;;0.63;0.63;;;6.10;99.90;;;;;;5236888;28;20028;-74
2021/12/30 03:28:34;;;;;;;1.80;1.42;;;6.10;99.90;;;;;;5256355;28;20035;-75
2021/12/30 03:31:08;;;;;;;1.92;1.85;;;6.10;99.90;;;;;;5261065;28;20052;-74
2021/12/30 03:33:40;;;;;;;0.63;0.63;;;6.20;99.90;;;;;;5249366;28;20047;-74
2021/12/30 03:36:12;;;;;;;0.65;0.65;;;6.20;99.90;;;;;;5243271;28;20229;-75
2021/12/30 03:38:57;;;;;;;0.60;0.60;;;6.30;99.90;;;;;;5246209;28;20394;-75
2021/12/30 03:41:34;;;;;;;0.70;0.70;;;6.30;99.90;;;;;;5253665;28;20211;-74
2021/12/30 03:44:05;;;;;;;0.55;0.55;;;6.40;99.90;;;;;;5245513;28;20028;-75
2021/12/30 03:46:42;;;;;;;0.98;0.98;;;6.50;99.90;;;;;;5252987;28;20044;-76
2021/12/30 03:49:15;;;;;;;0.75;0.75;;;6.50;99.90;;;;;;5261384;28;20036;-76
2021/12/30 03:51:51;;;;;;;1.48;1.48;;;6.60;99.90;;;;;;5255275;28;20322;-76
2021/12/30 03:54:27;;;;;;;0.70;0.70;;;6.70;99.90;;;;;;5253944;28;20044;-75
2021/12/30 03:56:58;;;;;;;0.80;0.80;;;6.60;99.90;;;;;;5260545;28;20309;-75
2021/12/30 03:59:28;;;;;;;0.80;0.80;;;6.50;99.90;;;;;;5240296;28;20040;-76
2021/12/30 04:02:04;;;;;;;0.50;0.50;;;6.50;99.90;;;;;;5258362;28;20031;-76
2021/12/30 04:04:35;;;;;;;0.70;0.70;;;6.40;99.90;;;;;;5247187;28;20058;-74
2021/12/30 04:07:09;;;;;;;1.02;1.02;;;6.20;99.90;;;;;;5260444;28;20333;-75
2021/12/30 04:09:47;;;;;;;1.50;1.40;;;6.20;99.90;;;;;;5254042;28;20106;-74
2021/12/30 04:12:20;;;;;;;1.27;1.27;;;6.20;99.90;;;;;;5252203;28;20534;-75
2021/12/30 04:14:54;;;;;;;0.70;0.70;;;6.30;99.90;;;;;;5260919;28;20377;-74
2021/12/30 04:17:27;;;;;;;1.13;1.13;;;6.30;99.90;;;;;;5251701;28;20065;-74
2021/12/30 04:20:00;;;;;;;0.75;0.75;;;6.30;99.90;;;;;;5270501;28;20047;-73
2021/12/30 04:22:41;;;;;;;0.70;0.70;;;6.30;99.90;;;;;;5253145;28;20035;-74
2021/12/30 04:25:15;;;;;;;0.77;0.77;;;6.10;99.90;;;;;;5269232;28;20193;-75
2021/12/30 04:27:46;;;;;;;0.70;0.70;;;6.10;99.90;;;;;;5255183;28;20036;-73
2021/12/30 04:30:17;;;;;;;0.68;0.68;;;6.20;99.90;;;;;;5248481;28;20051;-73
2021/12/30 04:32:48;;;;;;;0.73;0.73;;;6.20;99.90;;;;;;5235918;28;20040;-76
2021/12/30 04:35:19;;;;;;;0.98;0.98;;;6.10;99.90;;;;;;5244407;28;20035;-74
2021/12/30 04:37:53;;;;;;;0.63;0.63;;;6.10;99.90;;;;;;5246575;28;20279;-76
2021/12/30 04:40:28;;;;;;;0.90;0.90;;;6.10;99.90;;;;;;5257878;28;20069;-74
2021/12/30 04:43:06;;;;;;;0.70;0.70;;;6.10;99.90;;;;;;5253134;28;20233;-73
2021/12/30 04:45:43;;;;;;;0.60;0.60;;;6.00;99.90;;;;;;5229186;28;20084;-74
2021/12/30 04:48:20;;;;;;;0.90;0.90;;;5.90;99.90;;;;;;5257201;28;20345;-74
2021/12/30 04:50:57;;;;;;;0.60;0.60;;;6.00;99.90;;;;;;5261016;28;20036;-75
2021/12/30 04:53:34;;;;;;;0.50;0.50;;;6.00;99.90;;;;;;5259145;28;20035;-75
2021/12/30 04:56:09;;;;;;;0.60;0.60;;;6.00;99.90;;;;;;5233504;28;20322;-74
2021/12/30 04:58:43;;;;;;;1.58;1.48;;;6.00;99.90;;;;;;5242663;28;20345;-74
2021/12/30 05:01:16;;;;;;;0.70;0.70;;;6.10;99.90;;;;;;5276385;28;20028;-75
2021/12/30 05:03:48;;;;;;;0.95;0.95;;;6.10;99.90;;;;;;5241508;28;20051;-74
2021/12/30 05:06:19;;;;;;;0.68;0.68;;;6.10;99.90;;;;;;5251226;28;20184;-75
2021/12/30 05:08:50;;;;;;;0.70;0.70;;;6.20;99.90;;;;;;5239712;28;20046;-74
2021/12/30 05:11:23;;;;;;;2.97;1.23;;;6.10;99.90;;;;;;5269743;28;20032;-76
2021/12/30 05:13:54;;;;;;;0.50;0.50;;;6.10;99.90;;;;;;5262997;28;20344;-76
2021/12/30 05:16:30;;;;;;;0.65;0.65;;;6.20;99.90;;;;;;5252936;28;20024;-76
2021/12/30 05:19:04;;;;;;;0.70;0.70;;;6.20;99.90;;;;;;5257276;28;20085;-74
2021/12/30 05:21:40;;;;;;;0.65;0.65;;;6.20;99.90;;;;;;5229218;28;20040;-75
2021/12/30 05:24:16;;;;;;;1.05;1.05;;;6.20;99.90;;;;;;5250970;28;20099;-75
2021/12/30 05:26:47;;;;;;;0.80;0.80;;;6.20;99.90;;;;;;5257995;28;20316;-75
2021/12/30 05:29:24;;;;;;;1.08;1.08;;;6.10;99.90;;;;;;5255249;28;20040;-75
2021/12/30 05:31:56;;;;;;;0.70;0.70;;;6.10;99.90;;;;;;5251633;28;20296;-74
2021/12/30 05:34:26;;;;;;;0.70;0.70;;;6.10;99.90;;;;;;5251922;28;20257;-75
2021/12/30 05:37:03;;;;;;;0.60;0.60;;;6.10;99.90;;;;;;5255108;28;20039;-75
2021/12/30 05:39:37;;;;;;;0.68;0.68;;;6.10;99.90;;;;;;5256609;28;20044;-75
2021/12/30 05:42:08;;;;;;;0.80;0.80;;;6.00;99.90;;;;;;5240644;28;20369;-77
2021/12/30 05:44:40;;;;;;;0.77;0.77;;;5.90;99.90;;;;;;5236587;28;20568;-74
2021/12/30 05:47:16;;;;;;;0.80;0.80;;;5.90;99.90;;;;;;5268652;28;20586;-76
2021/12/30 05:49:50;;;;;;;0.50;0.50;;;5.90;99.90;;;;;;5257195;28;20055;-74
2021/12/30 05:52:21;;;;;;;0.68;0.68;;;5.90;99.90;;;;;;5241167;28;20265;-74
2021/12/30 05:54:56;;;;;;;0.50;0.50;;;6.00;99.90;;;;;;5258819;28;20170;-75
2021/12/30 05:57:29;;;;;;;0.70;0.70;;;6.10;99.90;;;;;;5240963;28;20484;-74
2021/12/30 06:00:00;;;;;;;0.57;0.57;;;6.10;99.90;;;;;;5251912;28;20034;-74
2021/12/30 06:02:36;;;;;;;0.68;0.68;;;6.00;99.90;;;;;;5255887;28;20040;-74
2021/12/30 06:05:08;;;;;;;0.63;0.63;;;6.00;99.90;;;;;;5236157;28;20444;-74
2021/12/30 06:07:39;;;;;;;0.70;0.70;;;6.00;99.90;;;;;;5249383;28;20029;-74
2021/12/30 06:10:15;;;;;;;0.80;0.80;;;6.00;99.90;;;;;;5260680;28;20028;-75
2021/12/30 06:12:51;;;;;;;0.60;0.60;;;5.90;99.90;;;;;;5250745;28;20038;-74
2021/12/30 06:15:28;;;;;;;0.57;0.57;;;5.90;99.90;;;;;;5260580;28;20357;-74
2021/12/30 06:18:04;;;;;;;0.68;0.68;;;5.90;99.90;;;;;;5253321;28;20040;-75
2021/12/30 06:20:39;;;;;;;0.70;0.70;;;5.80;99.90;;;;;;5245835;28;20044;-74
2021/12/30 06:23:13;;;;;;;0.68;0.68;;;5.90;99.90;;;;;;5242292;28;20095;-76
2021/12/30 06:25:47;;;;;;;1.35;1.35;;;5.80;99.90;;;;;;5265042;28;20047;-74
2021/12/30 06:28:19;;;;;;;;;;;5.90;99.90;;;;;;5241398;28;20025;-74
2021/12/30 06:30:58;;;;;;;0.68;0.68;;;5.90;99.90;;;;;;5221271;28;19920;-74
2021/12/30 06:33:33;;;;;;;0.60;0.60;;;5.90;99.90;;;;;;5252163;28;20028;-74
2021/12/30 06:36:07;;;;;;;0.52;0.52;;;5.90;99.90;;;;;;5256353;28;20074;-75
2021/12/30 06:38:43;;;;;;;1.85;1.75;;;5.90;99.90;;;;;;5247720;28;20033;-74
2021/12/30 06:41:14;;;;;;;0.60;0.60;;;5.80;99.90;;;;;;5231344;28;20029;-74
2021/12/30 06:43:49;;;;;;;0.70;0.70;;;5.90;99.90;;;;;;5253214;28;20028;-74
2021/12/30 06:46:23;;;;;;;0.70;0.70;;;6.00;99.90;;;;;;5249028;28;20109;-76
2021/12/30 06:48:57;;;;;;;0.80;0.80;;;6.00;99.90;;;;;;5239238;28;20036;-76
2021/12/30 06:51:39;;;;;;;0.98;0.98;;;6.10;99.90;;;;;;5271180;28;20126;-76
2021/12/30 06:54:15;;;;;;;0.65;0.65;;;6.10;99.90;;;;;;5238971;28;20044;-76
2021/12/30 06:56:47;;;;;;;0.80;0.80;;;6.10;99.90;;;;;;5250597;28;20369;-73
2021/12/30 06:59:18;;;;;;;0.70;0.70;;;6.10;99.90;;;;;;5240501;28;20039;-75
2021/12/30 07:01:52;;;;;;;0.65;0.65;;;6.00;99.90;;;;;;5256151;28;20025;-74
2021/12/30 07:04:25;;;;;;;;;;;5.90;99.90;;;;;;5240353;28;20501;-74
2021/12/30 07:06:56;;;;;;;0.60;0.60;;;6.00;99.90;;;;;;5258304;28;19958;-75
2021/12/30 07:09:29;;;;;;;0.55;0.55;;;6.00;99.90;;;;;;5241358;28;20040;-74
2021/12/30 07:12:03;;;;;;;0.50;0.50;;;6.10;99.90;;;;;;5254584;28;20028;-74
2021/12/30 07:14:35;;;;;;;1.85;1.77;;;6.10;99.90;;;;;;5259960;28;20024;-75
2021/12/30 07:17:06;;;;;;;5.43;2.58;;;6.10;99.90;;;;;;5247192;28;20160;-75
2021/12/30 07:19:43;;;;;;;0.70;0.70;;;6.10;99.90;;;;;;5242861;28;20392;-74
2021/12/30 07:22:14;;;;;;;0.70;0.70;;;6.10;99.90;;;;;;5241008;28;20029;-74
2021/12/30 07:24:45;;;;;;;0.90;0.90;;;6.20;99.90;;;;;;5258224;28;20066;-75
2021/12/30 07:27:19;;;;;;;1.52;1.42;;;6.10;99.90;;;;;;5254115;28;20357;-75
2021/12/30 07:29:56;;;;;;;1.95;1.90;;;6.10;99.90;;;;;;5262728;28;20139;-74
2021/12/30 07:32:34;;;;;;;0.80;0.80;;;6.20;99.90;;;;;;5254186;28;20154;-74
2021/12/30 07:35:09;;;;;;;0.55;0.55;;;6.30;99.90;;;;;;5249085;28;20113;-75
2021/12/30 07:37:42;;;;;;;1.02;1.02;;;6.30;99.90;;;;;;5232916;28;20044;-76
2021/12/30 07:40:19;;;;;;;0.80;0.80;;;6.30;99.90;;;;;;5257454;28;20073;-74
2021/12/30 07:42:56;;;;;;;1.08;1.08;;;6.20;99.90;;;;;;5239903;28;20028;-74
2021/12/30 07:45:27;;;;;;;0.70;0.70;;;6.30;99.90;;;;;;5251917;28;20044;-74
2021/12/30 07:48:00;;;;;;;0.93;0.93;;;6.30;99.90;;;;;;5257975;28;20334;-77
2021/12/30 07:50:36;;;;;;;1.10;1.10;;;6.40;99.90;;;;;;5255755;28;20056;-74
2021/12/30 07:53:14;;;;;;;0.90;0.90;;;6.40;99.90;;;;;;5274589;28;20283;-76
2021/12/30 07:55:50;;;;;;;0.77;0.77;;;6.40;99.90;;;;;;5258088;28;20020;-76
2021/12/30 07:58:26;;;;;;;0.55;0.55;;;6.40;99.90;;;;;;5237800;28;20035;-73
2021/12/30 08:01:00;;;;;;;0.85;0.85;;;6.40;99.90;;;;;;5249473;28;20257;-76
2021/12/30 08:03:31;;;;;;;0.70;0.70;;;6.40;99.90;;;;;;5234866;28;20032;-74
2021/12/30 08:06:03;;;;;;;0.70;0.70;;;6.40;99.90;;;;;;5246202;28;20632;-74
2021/12/30 08:08:34;;;;;;;1.20;1.20;;;6.50;99.90;;;;;;5241740;28;20509;-74
2021/12/30 08:11:06;;;;;;;8.35;2.03;;;6.50;99.90;;;;;;5253807;28;20027;-75
2021/12/30 08:13:39;;;;;;;0.60;0.60;;;6.50;99.90;;;;;;5241781;28;20168;-74
2021/12/30 08:16:21;;;;;;;1.70;1.63;;;6.50;99.90;;;;;;5252388;28;20032;-75
2021/12/30 08:18:54;;;;;;;0.82;0.82;;;6.60;99.90;;;;;;5249515;28;20272;-75
2021/12/30 08:21:30;;;;;;;0.77;0.77;;;6.70;99.90;;;;;;5240816;28;20046;-75
2021/12/30 08:24:07;;;;;;;0.95;0.95;;;6.80;99.90;;;;;;5255281;28;20095;-74
2021/12/30 08:26:43;;;;;;;0.60;0.60;;;7.00;99.90;;;;;;5237702;28;20020;-76
2021/12/30 08:29:21;;;;;;;1.55;1.45;;;7.10;99.90;;;;;;5247595;28;20094;-75
2021/12/30 08:31:54;;;;;;;2.13;2.03;;;7.00;99.90;;;;;;5247785;28;20536;-76
2021/12/30 08:34:28;;;;;;;1.38;1.17;;;7.30;99.90;;;;;;5248956;28;20043;-75
2021/12/30 08:36:59;;;;;;;1.63;0.93;;;7.30;99.90;;;;;;5259751;28;20195;-74
2021/12/30 08:39:39;;;;;;;0.55;0.55;;;7.40;99.90;;;;;;5257099;28;20030;-75
2021/12/30 08:42:27;;;;;;;1.10;1.10;;;7.40;99.90;;;;;;5250125;28;20036;-76
2021/12/30 08:45:00;;;;;;;0.93;0.93;;;7.60;99.90;;;;;;5255465;28;20036;-75
2021/12/30 08:47:34;;;;;;;0.65;0.65;;;8.70;99.90;;;;;;5246961;28;20029;-76
2021/12/30 08:50:11;;;;;;;1.00;1.00;;;9.80;99.90;;;;;;5246149;28;20087;-74
2021/12/30 08:52:47;;;;;;;0.60;0.60;;;10.30;99.90;;;;;;5253138;28;20039;-74
2021/12/30 08:55:21;;;;;;;0.70;0.70;;;10.80;99.90;;;;;;5246796;28;20024;-75
2021/12/30 08:57:55;;;;;;;0.70;0.70;;;10.90;99.90;;;;;;5243013;28;20086;-74
2021/12/30 09:00:33;;;;;;;0.80;0.80;;;10.90;99.90;;;;;;5251106;28;20130;-73
2021/12/30 09:03:22;;;;;;;0.73;0.73;;;11.00;99.90;;;;;;5259770;28;20032;-74
2021/12/30 09:06:17;;;;;;;0.80;0.80;;;11.00;99.90;;;;;;5236253;28;20059;-74
2021/12/30 09:08:51;;;;;;;0.70;0.70;;;11.10;99.90;;;;;;5248187;28;20522;-74
2021/12/30 09:11:27;;;;;;;0.80;0.80;;;11.20;99.90;;;;;;5251933;28;20036;-74
2021/12/30 09:14:03;;;;;;;1.10;1.10;;;11.30;99.90;;;;;;5253308;28;20269;-74
2021/12/30 09:16:37;;;;;;;0.80;0.80;;;11.30;99.90;;;;;;5251447;28;20048;-74
2021/12/30 09:19:13;;;;;;;1.65;1.55;;;11.40;99.90;;;;;;5252834;28;20043;-74
2021/12/30 09:21:45;;;;;;;0.80;0.80;;;11.40;99.90;;;;;;5257806;28;20087;-74
2021/12/30 09:24:20;;;;;;;0.75;0.75;;;11.50;99.90;;;;;;5258910;28;20039;-74
2021/12/30 09:26:51;;;;;;;0.50;0.50;;;11.60;99.90;;;;;;5253025;28;20035;-75
2021/12/30 09:29:23;;;;;;;0.88;0.88;;;11.60;99.90;;;;;;5243407;28;20092;-75
2021/12/30 09:31:58;;;;;;;0.60;0.60;;;11.60;99.90;;;;;;5245933;28;20074;-74
2021/12/30 09:34:29;;;;;;;0.90;0.90;;;11.70;99.90;;;;;;5264609;28;20337;-74
2021/12/30 09:37:02;;;;;;;8.85;1.70;;;11.70;99.90;;;;;;5243194;28;20295;-75
2021/12/30 09:39:37;;;;;;;0.80;0.80;;;11.90;99.90;;;;;;5255465;28;20260;-74
2021/12/30 09:42:11;;;;;;;1.00;1.00;;;12.00;99.90;;;;;;5238443;28;20048;-74
2021/12/30 09:44:44;;;;;;;0.80;0.80;;;12.00;99.90;;;;;;5240611;28;20044;-76
2021/12/30 09:47:17;;;;;;;1.38;1.38;;;12.10;99.90;;;;;;5247388;28;20594;-74
2021/12/30 09:49:52;;;;;;;0.77;0.77;;;12.00;99.90;;;;;;5258726;28;20032;-74
2021/12/30 09:52:26;;;;;;;0.63;0.63;;;12.00;99.90;;;;;;5240469;28;20040;-74
2021/12/30 09:54:58;;;;;;;0.90;0.90;;;12.20;99.90;;;;;;5255186;28;20036;-73
2021/12/30 09:57:29;;;;;;;1.13;1.13;;;12.30;99.90;;;;;;5239372;28;20316;-74
2021/12/30 10:00:00;;;;;;;0.98;0.98;;;12.30;99.90;;;;;;5263947;28;20096;-76
2021/12/30 10:02:31;;;;;;;0.60;0.60;;;12.50;99.90;;;;;;5252090;28;20043;-76
2021/12/30 10:05:15;;;;;;;1.08;1.02;;;12.60;99.90;;;;;;5235975;28;20074;-76
2021/12/30 10:07:47;;;;;;;0.93;0.93;;;12.70;99.90;;;;;;5225072;28;20035;-74
2021/12/30 10:10:36;;;;;;;0.70;0.70;;;12.60;99.90;;;;;;5236246;28;20344;-74
2021/12/30 10:13:30;;;;;;;1.20;1.20;;;12.80;99.90;;;;;;5240100;28;20024;-73
2021/12/30 10:16:10;;;;;;;0.70;0.70;;;13.00;99.90;;;;;;5246079;28;20036;-75
2021/12/30 10:18:58;;;;;;;0.98;0.98;;;13.00;99.90;;;;;;5264784;28;20036;-76
2021/12/30 10:21:44;;;;;;;0.90;0.90;;;13.20;99.90;;;;;;5250469;28;20337;-74
2021/12/30 10:24:17;;;;;;;1.13;1.13;;;13.20;99.90;;;;;;5256004;28;20411;-74
2021/12/30 10:27:02;;;;;;;0.73;0.73;;;13.20;99.90;;;;;;5254893;28;20032;-74
2021/12/30 10:29:48;;;;;;;0.80;0.80;;;13.30;99.90;;;;;;5265553;28;20037;-76
2021/12/30 10:32:27;;;;;;;0.70;0.70;;;13.70;99.90;;;;;;5249825;28;20100;-73
2021/12/30 10:35:09;;;;;;;0.70;0.70;;;14.60;99.90;;;;;;5261579;28;20024;-76
2021/12/30 10:37:47;;;;;;;0.70;0.70;;;15.40;99.90;;;;;;5259197;28;20062;-74
2021/12/30 10:40:32;;;;;;;0.95;0.95;;;16.20;99.90;;;;;;5262717;28;20056;-74
2021/12/30 10:43:33;;;;;;;0.80;0.80;;;15.80;99.90;;;;;;5264001;28;20451;-75
2021/12/30 10:46:30;;;;;;;0.90;0.90;;;15.60;99.90;;;;;;5267053;28;20579;-75
2021/12/30 10:49:10;;;;;;;0.90;0.90;;;16.40;99.90;;;;;;5266342;28;20310;-74
2021/12/30 10:51:49;;;;;;;0.85;0.85;;;16.30;99.90;;;;;;5270273;28;20034;-74
2021/12/30 10:54:30;;;;;;;0.80;0.80;;;16.20;99.90;;;;;;5269660;28;20046;-76
2021/12/30 10:57:06;;;;;;;0.70;0.70;;;15.10;99.90;;;;;;5272395;28;20036;-72
2021/12/30 10:59:44;;;;;;;0.88;0.88;;;14.40;99.90;;;;;;5260294;28;20040;-72
2021/12/30 11:02:18;;;;;;;1.60;1.50;;;14.90;99.90;;;;;;5280721;28;20042;-73
2021/12/30 11:05:07;;;;;;;0.80;0.80;;;15.00;99.90;;;;;;5255449;28;20060;-76
2021/12/30 11:07:53;;;;;;;0.90;0.90;;;15.70;99.90;;;;;;5258525;28;20407;-76
2021/12/30 11:10:37;;;;;;;0.93;0.93;;;16.00;99.90;;;;;;5275946;28;20052;-74
2021/12/30 11:13:17;;;;;;;10.30;1.77;;;15.60;99.90;;;;;;5260134;28;20277;-76
2021/12/30 11:16:02;;;;;;;0.82;0.82;;;14.30;99.90;;;;;;5257508;28;20272;-74
2021/12/30 11:18:46;;;;;;;3.05;1.70;;;14.60;99.90;;;;;;5286458;28;20059;-76
2021/12/30 11:21:42;;;;;;;0.70;0.70;;;15.30;99.90;;;;;;5262549;28;20200;-75
2021/12/30 11:24:13;;;;;;;0.60;0.60;;;15.40;99.90;;;;;;5259334;28;20024;-77
2021/12/30 11:26:47;;;;;;;0.80;0.80;;;15.90;99.90;;;;;;5252320;28;20408;-79
2021/12/30 11:29:23;;;;;;;0.87;0.87;;;16.50;99.90;;;;;;5241122;28;20058;-77
2021/12/30 11:31:54;;;;;;;0.70;0.70;;;16.60;99.90;;;;;;5256053;28;20318;-77
2021/12/30 11:34:29;;;;;;;1.27;1.27;;;15.40;99.90;;;;;;5260551;28;20272;-77
2021/12/30 11:37:01;;;;;;;0.80;0.80;;;15.50;99.90;;;;;;5241900;28;20056;-77
2021/12/30 11:39:35;;;;;;;0.70;0.70;;;15.90;99.90;;;;;;5239150;28;20069;-77
2021/12/30 11:42:17;;;;;;;1.42;1.42;;;16.10;99.90;;;;;;5253624;28;20047;-78
2021/12/30 11:44:51;;;;;;;0.77;0.77;;;16.50;99.90;;;;;;5255640;28;20047;-77
2021/12/30 11:47:41;;;;;;;0.80;0.80;;;16.40;99.90;;;;;;5253086;28;20047;-75
2021/12/30 11:50:26;;;;;;;0.65;0.65;;;15.40;99.90;;;;;;5250602;28;20042;-77
2021/12/30 11:53:11;;;;;;;;;;;15.30;99.90;;;;;;5260938;28;20079;-77
2021/12/30 11:56:03;;;;;;;1.00;1.00;;;15.00;99.90;;;;;;5267909;28;19927;-76
2021/12/30 11:58:40;;;;;;;0.95;0.95;;;15.40;99.90;;;;;;5247487;28;20085;-77
2021/12/30 12:01:11;;;;;;;0.80;0.80;;;16.30;99.90;;;;;;5262013;28;20028;-75
2021/12/30 12:03:58;;;;;;;0.60;0.60;;;16.40;99.90;;;;;;5257662;28;20040;-72
2021/12/30 12:07:00;;;;;;;0.80;0.80;;;16.20;99.90;;;;;;5253232;28;20050;-83
2021/12/30 12:09:38;;;;;;;0.80;0.80;;;17.10;99.90;;;;;;5256212;28;20028;-82
2021/12/30 12:12:35;;;;;;;0.70;0.70;;;18.40;99.90;;;;;;5263140;28;20333;-80
2021/12/30 12:15:09;;;;;;;0.95;0.95;;;19.00;99.90;;;;;;5257426;28;20455;-81
2021/12/30 12:17:44;;;;;;;0.90;0.90;;;17.90;99.90;;;;;;5246514;28;20057;-82
2021/12/30 12:20:23;;;;;;;0.70;0.70;;;18.20;99.90;;;;;;5244377;28;20108;-80
2021/12/30 12:22:54;;;;;;;0.60;0.60;;;18.60;99.90;;;;;;5246931;28;20361;-80
2021/12/30 12:25:29;;;;;;;1.08;1.08;;;18.30;99.90;;;;;;5262555;28;20043;-81
2021/12/30 12:28:23;;;;;;;0.60;0.60;;;17.70;99.90;;;;;;5263363;28;20028;-81
2021/12/30 12:30:57;;;;;;;0.70;0.70;;;17.40;99.90;;;;;;5260568;28;20318;-80
2021/12/30 12:33:33;;;;;;;0.70;0.70;;;16.90;99.90;;;;;;5257327;28;20073;-80
2021/12/30 12:36:34;;;;;;;0.75;0.75;;;16.50;99.90;;;;;;5256081;28;20027;-81
2021/12/30 12:39:38;;;;;;;0.70;0.70;;;16.10;99.90;;;;;;5249238;28;20239;-79
2021/12/30 12:42:09;;;;;;;0.82;0.82;;;15.80;99.90;;;;;;5258463;28;20024;-81
2021/12/30 12:44:40;;;;;;;0.90;0.90;;;15.70;99.90;;;;;;5273538;28;20089;-80
2021/12/30 12:47:15;;;;;;;2.72;1.63;;;15.80;99.90;;;;;;5262746;28;20028;-82
2021/12/30 12:49:46;;;;;;;1.40;1.40;;;15.50;99.90;;;;;;5242359;28;20028;-81
2021/12/30 12:52:19;;;;;;;0.70;0.70;;;15.50;99.90;;;;;;5259750;28;20462;-80
2021/12/30 12:54:57;;;;;;;0.80;0.80;;;15.70;99.90;;;;;;5260475;28;20554;-79
2021/12/30 12:57:28;;;;;;;0.70;0.70;;;15.80;99.90;;;;;;5250311;28;20020;-80
2021/12/30 13:00:02;;;;;;;0.88;0.88;;;15.40;99.90;;;;;;5248341;28;20107;-80
2021/12/30 13:02:33;;;;;;;0.80;0.80;;;15.30;99.90;;;;;;5253076;28;20397;-80
2021/12/30 13:05:12;;;;;;;0.65;0.65;;;15.10;99.90;;;;;;5226478;28;20091;-79
2021/12/30 13:07:49;;;;;;;0.70;0.70;;;15.00;99.90;;;;;;5257338;28;20455;-80
2021/12/30 13:10:23;;;;;;;0.73;0.73;;;15.00;99.90;;;;;;5265279;28;20379;-82
2021/12/30 13:13:00;;;;;;;0.80;0.80;;;15.00;99.90;;;;;;5258185;28;20031;-83
2021/12/30 13:15:42;;;;;;;0.70;0.70;;;15.40;99.90;;;;;;5262676;28;20283;-81
2021/12/30 13:18:15;;;;;;;0.80;0.80;;;15.90;99.90;;;;;;5278433;28;20174;-82
2021/12/30 13:20:56;;;;;;;1.10;1.10;;;16.30;99.90;;;;;;5249051;28;20085;-85
2021/12/30 13:23:35;;;;;;;0.68;0.68;;;16.80;99.90;;;;;;5218483;28;20036;-81
2021/12/30 13:26:15;;;;;;;0.80;0.80;;;16.10;99.90;;;;;;5249270;28;20502;-83
2021/12/30 13:28:58;;;;;;;0.60;0.60;;;15.60;99.90;;;;;;5239362;28;20268;-82
2021/12/30 13:31:33;;;;;;;0.70;0.70;;;15.00;99.90;;;;;;5255575;28;20028;-82
2021/12/30 13:34:10;;;;;;;0.80;0.80;;;14.90;99.90;;;;;;5263618;28;20035;-82
2021/12/30 13:36:41;;;;;;;0.80;0.80;;;15.00;99.90;;;;;;5256635;28;20032;-82
2021/12/30 13:39:19;;;;;;;0.93;0.93;;;15.00;99.90;;;;;;5234234;28;20049;-82
2021/12/30 13:41:52;;;;;;;1.50;1.50;;;15.10;99.90;;;;;;5237857;28;20025;-80